Latest Weather Observations for Central Arnhem Plateau

IDD60801

Issued at 8:01 pm CST Friday 4 September 2015 (issued every 30 minutes, with the page automatically refreshed every 10 minutes)

About weather observations | Map of weather stations | Latest weather observations for NT | Other Formats
Station Details ID: 014909 Name: CENTRAL ARNHEM PLATEAU Lat: -13.33 Lon: 133.09 Height: 416.0 m
Data from the previous 72 hours. | See also: Recent months at Central Arnhem Plateau
Date/Time
CST
Temp
°C
App
Temp
°C
Dew
Point
Rel
Hum
%
Delta-T
°C
Wind Press
QNH
hPa
Press
MSL
hPa
Rain
since 9 am
mm
Dir
 
Spd
km/h
Gust
km/h
Spd
kts
Gust
kts
04/08:00pm 28.6 28.0 7.2 26 11.7 CALM 0 0 0 0 1017.2 1014.6 0.0
04/07:30pm 29.9 27.9 7.2 24 12.5 ESE 7 9 4 5 1016.8 1014.1 0.0
04/07:00pm 30.7 28.3 7.2 23 13.0 ESE 9 11 5 6 1016.3 1013.7 0.0
04/06:30pm 31.4 27.9 7.1 22 13.4 ESE 15 20 8 11 1016.0 1013.4 0.0
04/06:00pm 32.1 27.8 7.0 21 13.9 ESE 19 26 10 14 1015.8 1013.2 0.0
04/05:30pm 32.7 28.3 7.5 21 14.1 ESE 20 26 11 14 1015.6 1013.0 0.0
04/05:00pm 33.3 29.8 7.3 20 14.6 ESE 15 20 8 11 1015.3 1012.7 0.0
04/04:30pm 33.3 29.1 7.3 20 14.6 E 19 28 10 15 1015.1 1012.5 0.0
04/04:00pm 33.7 29.3 7.6 20 14.7 SE 20 30 11 16 1015.2 1012.6 0.0
04/03:30pm 32.5 28.2 8.0 22 13.8 ESE 20 35 11 19 1015.4 1012.8 0.0
04/03:00pm 32.8 28.2 8.3 22 13.9 SE 22 39 12 21 1015.7 1013.1 0.0
04/02:30pm 32.9 28.4 8.4 22 13.9 SE 22 37 12 20 1016.1 1013.5 0.0
04/02:00pm 31.7 26.7 8.0 23 13.3 E 24 35 13 19 1016.7 1014.0 0.0
04/01:30pm 32.4 28.6 9.9 25 13.1 ESE 20 35 11 19 1017.0 1014.4 0.0
04/01:00pm 31.2 27.5 10.0 27 12.3 E 20 32 11 17 1017.6 1015.0 0.0
04/12:30pm 31.1 27.4 11.5 30 11.6 E 22 35 12 19 1018.2 1015.6 0.0
04/12:00pm 29.7 27.2 12.2 34 10.4 E 17 28 9 15 1018.7 1016.1 0.0
04/11:30am 29.7 27.7 13.9 38 9.6 ESE 17 24 9 13 1019.3 1016.7 0.0
04/11:00am 28.5 26.0 13.6 40 9.0 E 19 32 10 17 1019.8 1017.2 0.0
04/10:30am 27.7 25.7 15.4 47 7.6 E 20 28 11 15 1020.2 1017.6 0.0
04/10:00am 26.1 24.6 15.2 51 6.7 ESE 17 24 9 13 1020.4 1017.8 0.0
04/09:30am 25.9 24.9 15.6 53 6.4 ESE 15 20 8 11 1020.4 1017.8 0.0
04/09:00am 24.4 23.9 16.9 63 4.7 ESE 15 20 8 11 1020.3 1017.7 0.0
04/08:30am 23.7 23.5 17.7 69 3.8 ESE 15 20 8 11 1020.2 1017.6 0.0
04/08:00am 22.2 21.8 16.2 69 3.7 SE 13 19 7 10 1020.1 1017.5 0.0
04/07:30am 21.2 21.6 16.2 73 3.1 SSE 9 11 5 6 1020.0 1017.4 0.0
04/07:00am 20.6 20.7 15.6 73 3.0 S 9 15 5 8 1019.5 1016.9 0.0
04/06:30am 19.8 21.0 13.7 68 3.6 CALM 0 0 0 0 1018.7 1016.1 0.0
04/06:00am 21.3 22.2 16.5 74 3.0 SW 7 9 4 5 1018.4 1015.8 0.0
04/05:30am 20.4 21.3 14.1 67 3.7 W 2 6 1 3 1018.1 1015.5 0.0
04/05:00am 21.6 21.9 16.1 71 3.4 WNW 9 11 5 6 1017.7 1015.1 0.0
04/04:30am 22.0 22.2 15.8 68 3.8 WNW 9 11 5 6 1017.5 1014.9 0.0
04/04:00am 22.4 22.6 15.7 66 4.1 W 9 11 5 6 1017.4 1014.8 0.0
04/03:30am 22.9 23.3 14.7 60 4.9 WNW 6 9 3 5 1017.5 1014.9 0.0
04/03:00am 23.5 25.1 14.8 58 5.3 CALM 0 7 0 4 1017.7 1015.1 0.0
04/02:30am 23.0 23.1 13.8 56 5.5 NNE 6 9 3 5 1017.5 1014.9 0.0
04/02:00am 23.4 23.4 14.1 56 5.6 N 7 11 4 6 1017.8 1015.2 0.0
04/01:30am 23.8 23.8 14.2 55 5.7 N 7 9 4 5 1017.9 1015.3 0.0
04/01:00am 24.0 23.7 14.4 55 5.8 N 9 9 5 5 1018.4 1015.8 0.0
04/12:30am 24.2 24.7 14.9 56 5.6 NNE 6 7 3 4 1018.6 1016.0 0.0
04/12:00am 24.5 23.7 15.1 55 5.7 ENE 13 15 7 8 1019.0 1016.3 0.0
 
Date/Time
CST
Temp
°C
App
Temp
°C
Dew
Point
Rel
Hum
%
Delta-T
°C
Wind Press
QNH
hPa
Press
MSL
hPa
Rain
since 9 am
mm
Dir
 
Spd
km/h
Gust
km/h
Spd
kts
Gust
kts
03/11:30pm 25.7 26.1 15.4 53 6.3 WNW 7 11 4 6 1018.1 1015.5 0.0
03/11:00pm 26.1 26.1 15.2 51 6.7 NW 9 13 5 7 1018.1 1015.5 0.0
03/10:30pm 26.5 25.9 14.6 48 7.2 NNW 11 15 6 8 1018.1 1015.5 0.0
03/10:00pm 26.8 24.8 10.1 35 9.5 NNW 11 17 6 9 1017.9 1015.3 0.0
03/09:30pm 26.8 25.2 8.7 32 10.0 ENE 7 9 4 5 1017.7 1015.1 0.0
03/09:00pm 28.1 26.0 8.4 29 10.9 ENE 9 13 5 7 1017.5 1014.9 0.0
03/08:30pm 29.0 27.4 8.7 28 11.4 E 7 11 4 6 1017.2 1014.6 0.0
03/08:00pm 28.8 27.2 7.9 27 11.6 ENE 6 7 3 4 1016.8 1014.1 0.0
03/07:30pm 29.8 28.1 7.7 25 12.2 ENE 6 7 3 4 1016.3 1013.7 0.0
03/07:00pm 31.3 29.1 7.7 23 13.2 ESE 9 11 5 6 1015.8 1013.2 0.0
03/06:30pm 32.2 29.4 7.1 21 13.9 ESE 11 13 6 7 1015.6 1013.0 0.0
03/06:00pm 32.9 29.2 6.2 19 14.7 ESE 15 19 8 10 1015.3 1012.7 0.0
03/05:30pm 33.3 30.0 6.6 19 14.8 E 13 22 7 12 1015.1 1012.5 0.0
03/05:00pm 33.9 30.2 6.3 18 15.3 SE 15 20 8 11 1015.0 1012.4 0.0
03/04:30pm 33.7 31.7 6.9 19 14.9 E 7 15 4 8 1014.9 1012.3 0.0
03/04:00pm 34.2 31.5 7.3 19 15.1 E 11 24 6 13 1014.9 1012.3 0.0
03/03:30pm 33.5 30.8 7.5 20 14.6 ESE 11 19 6 10 1014.9 1012.3 0.0
03/03:00pm 33.4 31.8 8.1 21 14.3 E 6 15 3 8 1015.2 1012.6 0.0
03/02:30pm 33.1 30.0 7.1 20 14.5 E 13 28 7 15 1015.5 1012.9 0.0
03/02:00pm 32.3 28.3 6.5 20 14.2 ENE 17 28 9 15 1016.0 1013.4 0.0
03/01:30pm 32.7 29.7 7.5 21 14.1 E 13 24 7 13 1016.3 1013.7 0.0
03/01:00pm 32.1 28.6 7.0 21 13.9 NE 15 20 8 11 1016.9 1014.2 0.0
03/12:30pm 32.4 31.1 9.2 24 13.3 NE 6 11 3 6 1017.4 1014.8 0.0
03/12:00pm 30.9 29.2 9.7 27 12.2 WSW 9 11 5 6 1017.8 1015.2 0.0
03/11:30am 30.9 30.0 11.3 30 11.5 SSW 7 13 4 7 1018.4 1015.8 0.0
03/11:00am 28.9 27.1 11.0 33 10.4 W 11 15 6 8 1018.8 1016.2 0.0
03/10:30am 28.9 28.1 12.8 37 9.6 NW 9 17 5 9 1019.3 1016.7 0.0
03/10:00am 27.4 26.5 12.6 40 8.8 NNW 9 15 5 8 1019.5 1016.9 0.0
03/09:30am 26.4 24.7 11.3 39 8.7 N 11 19 6 10 1019.5 1016.9 0.0
03/09:00am 25.5 24.3 12.7 45 7.5 NW 11 15 6 8 1019.5 1016.9 0.0
03/08:30am 24.3 23.4 13.8 52 6.3 NNW 11 15 6 8 1019.3 1016.7 0.0
03/08:00am 23.2 22.6 14.5 58 5.2 NW 11 13 6 7 1019.2 1016.6 0.0
03/07:30am 22.3 22.7 15.2 64 4.3 WNW 7 11 4 6 1018.7 1016.1 0.0
03/07:00am 20.2 20.4 14.8 71 3.2 N 7 9 4 5 1018.2 1015.6 0.0
03/06:30am 19.9 20.0 14.5 71 3.2 N 7 9 4 5 1017.8 1015.2 0.0
03/06:00am 20.5 20.5 14.2 67 3.7 NW 7 9 4 5 1017.4 1014.8 0.0
03/05:30am 21.3 21.4 14.5 65 4.1 NW 7 9 4 5 1017.0 1014.4 0.0
03/05:00am 21.7 21.5 14.8 65 4.1 NW 9 11 5 6 1016.9 1014.2 0.0
03/04:30am 22.1 22.0 15.0 64 4.3 NW 9 13 5 7 1016.7 1014.0 0.0
03/04:00am 22.4 22.0 15.3 64 4.3 WNW 11 15 6 8 1016.8 1014.1 0.0
03/03:30am 22.3 22.4 15.4 65 4.2 NW 9 11 5 6 1016.8 1014.1 0.0
03/03:00am 22.2 21.9 15.5 66 4.1 NW 11 13 6 7 1017.2 1014.6 0.0
03/02:30am 22.4 22.5 15.5 65 4.2 NNW 9 13 5 7 1017.3 1014.7 0.0
03/02:00am 22.6 23.0 15.2 63 4.5 N 7 9 4 5 1017.3 1014.7 0.0
03/01:30am 23.3 23.4 15.4 61 4.8 NNW 9 13 5 7 1017.2 1014.6 0.0
03/01:00am 24.0 22.4 15.0 57 5.5 NW 17 26 9 14 1017.2 1014.6 0.0
03/12:30am 24.4 23.8 14.5 54 6.0 WNW 11 17 6 9 1017.3 1014.7 0.0
03/12:00am 24.8 23.7 14.3 52 6.3 WNW 13 20 7 11 1017.4 1014.8 0.0
 
Date/Time
CST
Temp
°C
App
Temp
°C
Dew
Point
Rel
Hum
%
Delta-T
°C
Wind Press
QNH
hPa
Press
MSL
hPa
Rain
since 9 am
mm
Dir
 
Spd
km/h
Gust
km/h
Spd
kts
Gust
kts
02/11:30pm 25.3 24.3 14.7 51 6.4 WNW 13 20 7 11 1017.4 1014.8 0.0
02/11:00pm 25.8 24.9 14.9 51 6.7 NW 13 17 7 9 1017.4 1014.8 0.0
02/10:30pm 26.4 25.4 14.5 48 7.2 NW 13 19 7 10 1017.3 1014.7 0.0
02/10:00pm 26.9 25.7 14.0 45 7.8 NW 13 19 7 10 1017.0 1014.4 0.0
02/09:30pm 27.5 25.7 10.7 35 9.7 NW 11 19 6 10 1016.7 1014.0 0.0
02/09:00pm 27.4 24.6 5.1 24 11.7 N 9 13 5 7 1016.1 1013.5 0.0
02/08:30pm 26.9 24.4 4.6 24 11.5 NE 7 9 4 5 1015.7 1013.1 0.0
02/08:00pm 28.2 26.6 4.5 22 12.3 ENE 2 7 1 4 1015.2 1012.6 0.0
02/07:30pm 29.0 26.5 4.5 21 12.8 NNE 7 9 4 5 1014.8 1012.2 0.0
02/07:00pm 29.8 26.7 3.7 19 13.5 NE 9 9 5 5 1014.4 1011.7 0.0
02/06:30pm 32.4 29.3 3.4 16 15.2 ESE 9 11 5 6 1014.0 1011.3 0.0
02/06:00pm 33.1 29.9 3.0 15 15.7 ESE 9 13 5 7 1013.7 1011.1 0.0
02/05:30pm 33.6 29.7 3.4 15 15.9 ESE 13 19 7 10 1013.4 1010.8 0.0
02/05:00pm 33.7 30.4 2.5 14 16.2 SW 9 17 5 9 1013.2 1010.6 0.0
02/04:30pm 34.2 30.6 2.9 14 16.4 E 11 17 6 9 1013.2 1010.6 0.0
02/04:00pm 33.8 30.7 3.6 15 16.0 ESE 9 13 5 7 1013.1 1010.5 0.0
02/03:30pm 33.7 30.6 3.5 15 16.0 E 9 19 5 10 1013.3 1010.7 0.0
02/03:00pm 33.8 29.7 4.5 16 15.7 E 15 22 8 12 1013.5 1010.9 0.0
02/02:30pm 33.3 29.9 4.1 16 15.5 ESE 11 24 6 13 1014.2 1011.5 0.0
02/02:00pm 33.7 30.4 4.4 16 15.7 ESE 11 20 6 11 1014.6 1011.9 0.0
02/01:30pm 33.2 28.7 4.0 16 15.5 ESE 17 32 9 17 1015.2 1012.6 0.0
02/01:00pm 32.3 29.5 5.0 18 14.7 ENE 9 17 5 9 1015.7 1013.1 0.0
02/12:30pm 32.3 29.4 6.5 20 14.2 ENE 11 19 6 10 1016.5 1013.8 0.0
02/12:00pm 31.3 29.1 7.7 23 13.2 ENE 9 17 5 9 1017.1 1014.5 0.0
02/11:30am 29.8 28.2 8.2 26 12.0 S 6 13 3 7 1017.7 1015.1 0.0
02/11:00am 29.6 28.2 9.7 29 11.4 SE 7 13 4 7 1018.3 1015.7 0.0
02/10:30am 28.6 27.1 9.3 30 10.9 NNW 7 13 4 7 1018.5 1015.9 0.0
02/10:00am 27.7 26.0 10.0 33 10.1 WNW 9 15 5 8 1018.6 1016.0 0.0
02/09:30am 27.1 25.9 11.6 38 9.0 W 9 13 5 7 1018.6 1016.0 0.0
02/09:00am 26.1 23.7 9.9 36 9.1 W 13 17 7 9 1018.6 1016.0 0.0
02/08:30am 25.2 24.0 12.8 46 7.3 W 11 15 6 8 1018.5 1015.9 0.0
02/08:00am 23.7 23.6 16.0 62 4.8 WNW 11 15 6 8 1018.0 1015.4 0.0
02/07:30am 22.2 23.4 17.3 74 3.1 WNW 7 11 4 6 1017.8 1015.2 0.0
02/07:00am 21.0 21.8 17.4 80 2.2 W 9 11 5 6 1017.6 1015.0 0.0
02/06:30am 21.0 22.1 17.2 79 2.4 WNW 7 9 4 5 1017.2 1014.6 0.0
02/06:00am 21.1 21.8 17.1 78 2.5 WNW 9 11 5 6 1016.9 1014.2 0.0
02/05:30am 21.3 22.0 17.1 77 2.6 WNW 9 11 5 6 1016.5 1013.8 0.0
02/05:00am 21.2 22.2 16.8 76 2.7 NW 7 9 4 5 1016.3 1013.7 0.0
02/04:30am 21.4 21.6 16.8 75 2.8 NW 11 15 6 8 1016.3 1013.7 0.0
02/04:00am 21.5 22.0 16.5 73 3.1 NW 9 11 5 6 1016.7 1014.0 0.0
02/03:30am 21.6 22.3 16.1 71 3.4 NW 7 11 4 6 1016.7 1014.0 0.0
02/03:00am 21.9 22.2 16.0 69 3.6 NNW 9 13 5 7 1016.5 1013.8 0.0
02/02:30am 22.2 22.9 16.0 68 3.8 NNW 7 11 4 6 1016.8 1014.1 0.0
02/02:00am 22.7 22.7 16.3 67 4.0 NW 11 17 6 9 1016.7 1014.0 0.0
02/01:30am 23.0 22.5 15.8 64 4.4 NW 13 17 7 9 1016.8 1014.1 0.0
02/01:00am 23.4 22.4 15.5 61 4.8 NW 15 20 8 11 1016.8 1014.1 0.0
02/12:30am 23.7 22.6 15.2 59 5.2 NW 15 24 8 13 1016.7 1014.0 0.0
02/12:00am 24.2 22.6 14.0 53 6.1 NW 15 22 8 12 1016.7 1014.0 0.0
 
Date/Time
CST
Temp
°C
App
Temp
°C
Dew
Point
Rel
Hum
%
Delta-T
°C
Wind Press
QNH
hPa
Press
MSL
hPa
Rain
since 9 am
mm
Dir
 
Spd
km/h
Gust
km/h
Spd
kts
Gust
kts
01/11:30pm 24.8 22.3 13.4 49 6.8 NW 19 30 10 16 1016.6 1013.9 0.0
01/11:00pm 24.8 23.7 12.1 45 7.4 NNW 9 11 5 6 1016.3 1013.7 0.0
01/10:30pm 25.7 24.3 12.2 43 7.9 WNW 11 17 6 9 1016.0 1013.4 0.0
01/10:00pm 26.1 24.1 11.4 39 8.5 NW 13 20 7 11 1015.8 1013.2 0.0
01/09:30pm 24.9 24.1 8.0 34 9.2 NW 2 6 1 3 1015.5 1012.9 0.0
01/09:00pm 24.3 22.6 8.3 36 8.7 ENE 7 11 4 6 1015.2 1012.6 0.0
01/08:30pm 26.2 25.7 7.7 31 10.1 CALM 0 0 0 0 1014.8 1012.2 0.0

Other Formats:

Comma delimited format used in spreadsheet applications
http://www.bom.gov.au/fwo/IDD60801/IDD60801.94141.axf

JavaScript Object Notation format (JSON) in row-major order
http://www.bom.gov.au/fwo/IDD60801/IDD60801.94141.json